createdAt,value
2024-03-14T00:00:20.318Z,100.00
2024-03-14T00:02:48.348Z,100.00
2024-03-14T00:05:16.429Z,100.00
2024-03-14T00:07:43.975Z,100.00
2024-03-14T00:10:11.884Z,100.00
2024-03-14T00:12:40.176Z,100.00
2024-03-14T00:15:08.133Z,100.00
2024-03-14T00:17:35.713Z,100.00
2024-03-14T00:20:04.684Z,100.00
2024-03-14T00:22:32.384Z,100.00
2024-03-14T00:25:00.238Z,100.00
2024-03-14T00:27:27.878Z,100.00
2024-03-14T00:29:57.247Z,100.00
2024-03-14T00:32:26.669Z,100.00
2024-03-14T00:34:54.307Z,100.00
2024-03-14T00:37:21.898Z,100.00
2024-03-14T00:39:49.340Z,100.00
2024-03-14T00:42:17.078Z,100.00
2024-03-14T00:44:45.270Z,100.00
2024-03-14T00:47:14.075Z,100.00
2024-03-14T00:49:41.969Z,100.00
2024-03-14T00:52:09.647Z,100.00
2024-03-14T00:54:37.591Z,100.00
2024-03-14T00:57:05.348Z,100.00
2024-03-14T00:59:33.699Z,100.00
2024-03-14T01:02:01.889Z,100.00
2024-03-14T01:04:29.468Z,100.00
2024-03-14T01:06:57.118Z,100.00
2024-03-14T01:09:26.930Z,100.00
2024-03-14T01:11:54.702Z,100.00
2024-03-14T01:14:22.711Z,100.00
2024-03-14T01:16:53.244Z,100.00
2024-03-14T01:19:21.259Z,100.00
2024-03-14T01:21:48.950Z,100.00
2024-03-14T01:24:16.989Z,100.00
2024-03-14T01:26:44.534Z,100.00
2024-03-14T01:29:12.508Z,100.00
2024-03-14T01:31:40.460Z,100.00
2024-03-14T01:34:09.615Z,100.00
2024-03-14T01:36:40.809Z,100.00
2024-03-14T01:39:12.748Z,100.00
2024-03-14T01:41:40.235Z,100.00
2024-03-14T01:44:07.482Z,100.00
2024-03-14T01:46:35.108Z,100.00
2024-03-14T01:49:03.804Z,100.00
2024-03-14T01:51:31.710Z,100.00
2024-03-14T01:54:01.236Z,100.00
2024-03-14T01:56:28.766Z,100.00
2024-03-14T01:58:56.262Z,100.00
2024-03-14T02:01:25.640Z,100.00
2024-03-14T02:04:02.669Z,100.00
2024-03-14T02:06:38.395Z,100.00
2024-03-14T02:09:06.260Z,100.00
2024-03-14T02:11:34.348Z,100.00
2024-03-14T02:14:01.803Z,100.00
2024-03-14T02:16:29.807Z,100.00
2024-03-14T02:18:57.155Z,100.00
2024-03-14T02:21:24.560Z,100.00
2024-03-14T02:23:53.268Z,100.00
2024-03-14T02:26:20.669Z,100.00
2024-03-14T02:28:48.413Z,100.00
2024-03-14T02:31:15.615Z,100.00
2024-03-14T02:33:45.943Z,100.00
2024-03-14T02:36:13.328Z,100.00
2024-03-14T02:38:40.713Z,100.00
2024-03-14T02:41:08.712Z,100.00
2024-03-14T02:43:38.014Z,100.00
2024-03-14T02:46:05.279Z,100.00
2024-03-14T02:48:32.712Z,100.00
2024-03-14T02:51:02.377Z,100.00
2024-03-14T02:53:31.218Z,100.00
2024-03-14T02:55:59.375Z,100.00
2024-03-14T02:58:26.660Z,100.00
2024-03-14T03:00:55.020Z,100.00
2024-03-14T03:03:23.516Z,100.00
2024-03-14T03:05:51.963Z,100.00
2024-03-14T03:08:19.354Z,100.00
2024-03-14T03:10:47.476Z,100.00
2024-03-14T03:13:15.994Z,100.00
2024-03-14T03:15:43.276Z,100.00
2024-03-14T03:18:11.600Z,100.00
2024-03-14T03:20:39.805Z,100.00
2024-03-14T03:23:10.020Z,100.00
2024-03-14T03:25:37.481Z,100.00
2024-03-14T03:28:06.033Z,100.00
2024-03-14T03:30:33.869Z,100.00
2024-03-14T03:33:02.116Z,100.00
2024-03-14T03:35:29.566Z,100.00
2024-03-14T03:37:58.460Z,100.00
2024-03-14T03:40:30.859Z,100.00
2024-03-14T03:42:58.839Z,100.00
2024-03-14T03:45:28.290Z,100.00
2024-03-14T03:47:55.916Z,100.00
2024-03-14T03:50:25.298Z,100.00
2024-03-14T03:52:53.741Z,100.00
2024-03-14T03:55:22.596Z,100.00
2024-03-14T03:57:50.205Z,100.00
2024-03-14T04:00:38.109Z,100.00
2024-03-14T04:03:14.359Z,100.00
2024-03-14T04:05:47.084Z,100.00
2024-03-14T04:08:17.719Z,100.00
2024-03-14T04:10:45.458Z,100.00
2024-03-14T04:13:16.574Z,100.00
2024-03-14T04:15:44.080Z,100.00
2024-03-14T04:18:11.617Z,100.00
2024-03-14T04:20:39.880Z,100.00
2024-03-14T04:23:08.231Z,100.00
2024-03-14T04:25:35.945Z,100.00
2024-03-14T04:28:03.845Z,100.00
2024-03-14T04:30:31.366Z,100.00
2024-03-14T04:32:59.189Z,100.00
2024-03-14T04:35:26.899Z,100.00
2024-03-14T04:37:55.059Z,100.00
2024-03-14T04:40:22.684Z,100.00
2024-03-14T04:42:59.390Z,100.00
2024-03-14T04:45:27.305Z,100.00
2024-03-14T04:47:56.257Z,100.00
2024-03-14T04:50:24.481Z,100.00
2024-03-14T04:52:53.288Z,100.00
2024-03-14T04:55:21.958Z,100.00
2024-03-14T04:57:50.335Z,100.00
2024-03-14T05:00:20.639Z,100.00
2024-03-14T05:02:54.243Z,100.00
2024-03-14T05:05:24.312Z,100.00
2024-03-14T05:07:52.308Z,100.00
2024-03-14T05:10:22.971Z,100.00
2024-03-14T05:12:50.787Z,100.00
2024-03-14T05:15:19.619Z,100.00
2024-03-14T05:17:47.574Z,100.00
2024-03-14T05:20:15.962Z,100.00
2024-03-14T05:22:44.601Z,100.00
2024-03-14T05:25:14.623Z,100.00
2024-03-14T05:27:51.577Z,100.00
2024-03-14T05:30:20.472Z,100.00
2024-03-14T05:32:48.243Z,100.00
2024-03-14T05:35:16.430Z,100.00
2024-03-14T05:37:43.634Z,100.00
2024-03-14T05:40:11.902Z,100.00
2024-03-14T05:42:40.805Z,100.00
2024-03-14T05:45:10.259Z,100.00
2024-03-14T05:47:40.967Z,100.00
2024-03-14T05:50:11.505Z,100.00
2024-03-14T05:52:42.671Z,100.00
2024-03-14T05:55:11.783Z,100.00
2024-03-14T05:57:40.456Z,100.00
2024-03-14T06:00:11.134Z,100.00
2024-03-14T06:02:42.762Z,100.00
2024-03-14T06:05:10.373Z,100.00
2024-03-14T06:07:37.548Z,100.00
2024-03-14T06:10:05.227Z,100.00
2024-03-14T06:12:33.215Z,100.00
2024-03-14T06:15:00.795Z,100.00
2024-03-14T06:17:28.366Z,100.00
2024-03-14T06:19:58.452Z,100.00
2024-03-14T06:22:25.927Z,100.00
2024-03-14T06:24:53.426Z,100.00
2024-03-14T06:27:20.951Z,100.00
2024-03-14T06:29:48.315Z,100.00
2024-03-14T06:32:15.570Z,100.00
2024-03-14T06:34:43.798Z,100.00
2024-03-14T06:37:11.259Z,100.00
2024-03-14T06:39:42.416Z,100.00
2024-03-14T06:42:11.149Z,100.00
2024-03-14T06:44:39.441Z,100.00
2024-03-14T06:47:07.094Z,100.00
2024-03-14T06:49:37.998Z,100.00
2024-03-14T06:52:07.443Z,100.00
2024-03-14T06:54:34.912Z,100.00
2024-03-14T06:57:02.370Z,100.00
2024-03-14T06:59:29.749Z,100.00
2024-03-14T07:01:57.916Z,100.00
2024-03-14T07:04:27.349Z,100.00
2024-03-14T07:06:54.502Z,100.00
2024-03-14T07:09:28.557Z,100.00
2024-03-14T07:11:56.338Z,100.00
2024-03-14T07:14:24.599Z,100.00
2024-03-14T07:16:51.990Z,100.00
2024-03-14T07:19:22.989Z,100.00
2024-03-14T07:21:56.719Z,100.00
2024-03-14T07:24:25.421Z,100.00
2024-03-14T07:26:54.631Z,100.00
2024-03-14T07:29:21.906Z,100.00
2024-03-14T07:31:53.617Z,100.00
2024-03-14T07:34:20.919Z,100.00
2024-03-14T07:36:49.237Z,100.00
2024-03-14T07:39:17.186Z,100.00
2024-03-14T07:41:44.801Z,100.00
2024-03-14T07:44:21.208Z,100.00
2024-03-14T07:46:54.390Z,100.00
2024-03-14T07:49:22.062Z,100.00
2024-03-14T07:51:49.411Z,100.00
2024-03-14T07:54:16.597Z,99.37
2024-03-14T07:56:47.812Z,100.00
2024-03-14T07:59:15.472Z,99.82
2024-03-14T08:01:47.056Z,100.00
2024-03-14T08:04:15.598Z,97.31
2024-03-14T08:06:45.406Z,98.15
2024-03-14T08:09:13.616Z,94.48
2024-03-14T08:11:42.747Z,91.94
2024-03-14T08:14:10.196Z,94.60
2024-03-14T08:16:37.697Z,91.31
2024-03-14T08:19:10.916Z,95.09
2024-03-14T08:21:41.015Z,95.43
2024-03-14T08:24:13.943Z,92.63
2024-03-14T08:26:41.454Z,92.27
2024-03-14T08:29:09.407Z,93.59
2024-03-14T08:31:36.914Z,92.19
2024-03-14T08:34:11.416Z,93.67
2024-03-14T08:36:43.601Z,95.47
2024-03-14T08:39:13.749Z,95.76
2024-03-14T08:41:41.606Z,94.23
2024-03-14T08:44:09.159Z,92.68
2024-03-14T08:46:37.077Z,88.46
2024-03-14T08:49:04.848Z,88.12
2024-03-14T08:51:39.442Z,89.45
2024-03-14T08:54:29.840Z,90.02
2024-03-14T08:57:00.543Z,88.68
2024-03-14T08:59:30.040Z,89.16
2024-03-14T09:01:57.822Z,90.84
2024-03-14T09:04:25.522Z,89.15
2024-03-14T09:06:52.999Z,89.75
2024-03-14T09:09:29.198Z,89.44
2024-03-14T09:11:57.927Z,90.60
2024-03-14T09:14:26.983Z,89.14
2024-03-14T09:16:54.585Z,91.94
2024-03-14T09:19:22.142Z,91.40
2024-03-14T09:21:50.855Z,93.94
2024-03-14T09:24:18.539Z,98.94
2024-03-14T09:26:46.535Z,100.00
2024-03-14T09:29:15.297Z,100.00
2024-03-14T09:31:45.924Z,100.00
2024-03-14T09:34:13.569Z,100.00
2024-03-14T09:36:41.534Z,100.00
2024-03-14T09:39:17.091Z,100.00
2024-03-14T09:41:44.590Z,100.00
2024-03-14T09:44:12.198Z,100.00
2024-03-14T09:46:43.312Z,100.00
2024-03-14T09:49:18.030Z,100.00
2024-03-14T09:51:46.536Z,100.00
2024-03-14T09:54:13.899Z,100.00
2024-03-14T09:56:41.355Z,100.00
2024-03-14T09:59:09.315Z,100.00
2024-03-14T10:01:38.899Z,100.00
2024-03-14T10:04:13.885Z,100.00
2024-03-14T10:06:41.978Z,100.00
2024-03-14T10:09:20.251Z,100.00
2024-03-14T10:11:59.700Z,100.00
2024-03-14T10:14:27.283Z,100.00
2024-03-14T10:16:54.604Z,100.00
2024-03-14T10:19:28.856Z,100.00
2024-03-14T10:21:56.107Z,100.00
2024-03-14T10:24:27.043Z,100.00
2024-03-14T10:26:54.477Z,100.00
2024-03-14T10:29:24.124Z,100.00
2024-03-14T10:31:51.530Z,100.00
2024-03-14T10:34:21.035Z,100.00
2024-03-14T10:36:54.439Z,100.00
2024-03-14T10:39:24.330Z,100.00
2024-03-14T10:41:52.933Z,100.00
2024-03-14T10:44:26.221Z,100.00
2024-03-14T10:46:53.957Z,100.00
2024-03-14T10:49:23.731Z,100.00
2024-03-14T10:51:53.479Z,100.00
2024-03-14T10:54:27.552Z,100.00
2024-03-14T10:56:57.094Z,100.00
2024-03-14T10:59:28.189Z,100.00
2024-03-14T11:01:56.945Z,100.00
2024-03-14T11:04:25.451Z,100.00
2024-03-14T11:06:55.927Z,100.00
2024-03-14T11:09:26.650Z,100.00
2024-03-14T11:11:59.486Z,100.00
2024-03-14T11:14:38.351Z,100.00
2024-03-14T11:17:11.945Z,100.00
2024-03-14T11:19:42.297Z,100.00
2024-03-14T11:22:10.636Z,100.00
2024-03-14T11:24:38.545Z,100.00
2024-03-14T11:27:07.519Z,100.00
2024-03-14T11:29:35.540Z,99.84
2024-03-14T11:32:32.533Z,99.14
2024-03-14T11:35:39.555Z,98.63
2024-03-14T11:38:20.078Z,97.52
2024-03-14T11:40:58.667Z,98.78
2024-03-14T11:43:28.669Z,100.00
2024-03-14T11:46:00.829Z,100.00
2024-03-14T11:48:32.432Z,96.44
2024-03-14T11:51:01.149Z,98.00
2024-03-14T11:53:31.245Z,98.94
2024-03-14T11:56:06.900Z,99.60
2024-03-14T11:58:43.608Z,99.56
2024-03-14T12:01:22.168Z,99.19
2024-03-14T12:03:59.382Z,98.39
2024-03-14T12:06:27.438Z,97.13
2024-03-14T12:08:55.310Z,96.93
2024-03-14T12:11:24.165Z,95.05
2024-03-14T12:13:54.076Z,97.30
2024-03-14T12:16:21.473Z,96.93
2024-03-14T12:18:50.669Z,97.07
2024-03-14T12:21:18.325Z,97.51
2024-03-14T12:23:56.900Z,99.50
2024-03-14T12:26:24.978Z,99.23
2024-03-14T12:28:52.979Z,98.41
2024-03-14T12:31:21.088Z,98.45
2024-03-14T12:33:49.057Z,98.16
2024-03-14T12:36:20.507Z,97.57
2024-03-14T12:38:52.419Z,97.30
2024-03-14T12:41:20.574Z,96.40
2024-03-14T12:43:49.052Z,95.74
2024-03-14T12:46:19.205Z,94.28
2024-03-14T12:48:49.296Z,93.15
2024-03-14T12:51:25.340Z,93.52
2024-03-14T12:54:02.243Z,94.02
2024-03-14T12:56:30.086Z,94.17
2024-03-14T12:59:00.237Z,93.91
2024-03-14T13:01:32.380Z,95.18
2024-03-14T13:04:01.422Z,95.50
2024-03-14T13:06:32.210Z,95.38
2024-03-14T13:09:22.850Z,94.29
2024-03-14T13:12:09.176Z,93.39
2024-03-14T13:14:36.839Z,94.64
2024-03-14T13:17:07.884Z,95.02
2024-03-14T13:19:37.327Z,96.54
2024-03-14T13:22:12.577Z,96.96
2024-03-14T13:24:40.122Z,96.60
2024-03-14T13:27:07.703Z,97.35
2024-03-14T13:29:36.590Z,96.40
2024-03-14T13:32:05.257Z,95.95
2024-03-14T13:34:34.478Z,95.51
2024-03-14T13:37:04.320Z,94.90
2024-03-14T13:39:38.064Z,94.50
2024-03-14T13:42:06.963Z,96.94
2024-03-14T13:44:35.198Z,96.81
2024-03-14T13:47:04.049Z,97.28
2024-03-14T13:49:39.271Z,95.36
2024-03-14T13:52:07.040Z,96.09
2024-03-14T13:54:35.446Z,97.39
2024-03-14T13:57:05.073Z,97.16
2024-03-14T13:59:35.097Z,97.55
2024-03-14T14:02:02.755Z,98.50
2024-03-14T14:04:32.516Z,98.94
2024-03-14T14:07:00.280Z,97.81
2024-03-14T14:09:29.170Z,97.99
2024-03-14T14:11:56.622Z,98.62
2024-03-14T14:14:24.273Z,99.21
2024-03-14T14:16:51.475Z,98.38
2024-03-14T14:19:19.088Z,98.27
2024-03-14T14:21:47.562Z,98.17
2024-03-14T14:24:15.041Z,99.13
2024-03-14T14:26:42.495Z,98.09
2024-03-14T14:29:09.772Z,98.26
2024-03-14T14:31:39.820Z,99.08
2024-03-14T14:34:07.926Z,99.37
2024-03-14T14:36:35.485Z,99.05
2024-03-14T14:39:03.519Z,100.00
2024-03-14T14:41:30.856Z,99.59
2024-03-14T14:43:59.584Z,99.83
2024-03-14T14:46:28.688Z,99.27
2024-03-14T14:49:17.030Z,100.00
2024-03-14T14:51:44.807Z,100.00
2024-03-14T14:54:14.900Z,100.00
2024-03-14T14:56:45.571Z,100.00
2024-03-14T14:59:13.639Z,100.00
2024-03-14T15:01:41.371Z,100.00
2024-03-14T15:04:11.648Z,100.00
2024-03-14T15:06:39.441Z,100.00
2024-03-14T15:09:10.452Z,100.00
2024-03-14T15:11:38.974Z,100.00
2024-03-14T15:14:06.351Z,100.00
2024-03-14T15:16:33.964Z,100.00
2024-03-14T15:19:05.877Z,100.00
2024-03-14T15:21:34.452Z,100.00
2024-03-14T15:24:02.428Z,100.00
2024-03-14T15:26:29.809Z,100.00
2024-03-14T15:28:57.216Z,100.00
2024-03-14T15:31:25.824Z,100.00
2024-03-14T15:33:53.373Z,100.00
2024-03-14T15:36:20.937Z,100.00
2024-03-14T15:38:48.668Z,100.00
2024-03-14T15:41:16.326Z,100.00
2024-03-14T15:43:43.895Z,100.00
2024-03-14T15:46:13.948Z,100.00
2024-03-14T15:48:41.434Z,100.00
2024-03-14T15:51:16.681Z,100.00
2024-03-14T15:53:45.117Z,100.00
2024-03-14T15:56:15.238Z,100.00
2024-03-14T15:58:45.405Z,100.00
2024-03-14T16:01:15.249Z,100.00
2024-03-14T16:03:43.057Z,100.00
2024-03-14T16:06:10.761Z,100.00
2024-03-14T16:08:49.027Z,100.00
2024-03-14T16:11:22.897Z,100.00
2024-03-14T16:13:50.640Z,100.00
2024-03-14T16:16:18.846Z,100.00
2024-03-14T16:18:50.585Z,100.00
2024-03-14T16:21:18.887Z,100.00
2024-03-14T16:23:49.982Z,100.00
2024-03-14T16:26:22.826Z,100.00
2024-03-14T16:28:50.355Z,100.00
2024-03-14T16:31:18.488Z,100.00
2024-03-14T16:33:52.223Z,100.00
2024-03-14T16:36:22.395Z,100.00
2024-03-14T16:38:50.048Z,100.00
2024-03-14T16:41:20.858Z,100.00
2024-03-14T16:43:48.358Z,100.00
2024-03-14T16:46:16.982Z,100.00
2024-03-14T16:48:44.559Z,100.00
2024-03-14T16:51:13.946Z,100.00
2024-03-14T16:53:42.343Z,100.00
2024-03-14T16:56:13.447Z,100.00
2024-03-14T16:58:41.346Z,100.00
2024-03-14T17:01:08.789Z,100.00
2024-03-14T17:03:36.923Z,100.00
2024-03-14T17:06:04.669Z,100.00
2024-03-14T17:08:31.990Z,100.00
2024-03-14T17:10:59.651Z,100.00
2024-03-14T17:13:30.910Z,100.00
2024-03-14T17:15:58.624Z,100.00
2024-03-14T17:18:28.464Z,100.00
2024-03-14T17:20:58.960Z,100.00
2024-03-14T17:23:26.349Z,99.71
2024-03-14T17:25:53.636Z,98.64
2024-03-14T17:28:21.602Z,97.52
2024-03-14T17:30:53.466Z,97.39
2024-03-14T17:33:21.317Z,97.96
2024-03-14T17:35:49.690Z,97.27
2024-03-14T17:38:19.063Z,97.00
2024-03-14T17:40:46.552Z,96.84
2024-03-14T17:43:14.788Z,96.56
2024-03-14T17:45:42.195Z,96.50
2024-03-14T17:48:10.375Z,96.84
2024-03-14T17:50:39.941Z,96.29
2024-03-14T17:53:08.577Z,96.10
2024-03-14T17:55:38.174Z,96.07
2024-03-14T17:58:07.284Z,95.77
2024-03-14T18:00:34.953Z,96.59
2024-03-14T18:03:03.045Z,97.13
2024-03-14T18:05:30.578Z,96.72
2024-03-14T18:07:57.846Z,97.17
2024-03-14T18:10:25.363Z,97.15
2024-03-14T18:12:53.328Z,97.46
2024-03-14T18:15:21.252Z,98.04
2024-03-14T18:17:49.013Z,98.94
2024-03-14T18:20:17.000Z,97.85
2024-03-14T18:22:46.285Z,98.58
2024-03-14T18:25:15.645Z,99.74
2024-03-14T18:27:46.000Z,99.98
2024-03-14T18:30:20.820Z,99.84
2024-03-14T18:32:49.731Z,99.35
2024-03-14T18:35:18.381Z,99.40
2024-03-14T18:37:47.172Z,98.99
2024-03-14T18:40:19.696Z,99.75
2024-03-14T18:42:51.089Z,100.00
2024-03-14T18:45:19.018Z,99.39
2024-03-14T18:47:47.352Z,99.34
2024-03-14T18:50:14.773Z,98.72
2024-03-14T18:52:42.758Z,99.56
2024-03-14T18:55:11.185Z,96.74
2024-03-14T18:57:38.870Z,98.34
2024-03-14T19:00:08.296Z,98.80
2024-03-14T19:02:36.385Z,99.48
2024-03-14T19:05:05.632Z,98.91
2024-03-14T19:07:35.706Z,98.45
2024-03-14T19:10:03.109Z,98.96
2024-03-14T19:12:30.388Z,98.54
2024-03-14T19:14:57.870Z,98.69
2024-03-14T19:17:26.508Z,99.11
2024-03-14T19:19:54.300Z,99.07
2024-03-14T19:22:22.570Z,99.76
2024-03-14T19:24:49.981Z,99.18
2024-03-14T19:27:17.579Z,98.95
2024-03-14T19:29:49.322Z,98.63
2024-03-14T19:32:17.263Z,99.46
2024-03-14T19:34:45.868Z,99.89
2024-03-14T19:37:13.594Z,99.94
2024-03-14T19:39:41.679Z,99.92
2024-03-14T19:42:10.630Z,99.78
2024-03-14T19:44:38.293Z,99.27
2024-03-14T19:47:08.096Z,98.81
2024-03-14T19:49:35.490Z,98.09
2024-03-14T19:52:03.421Z,97.97
2024-03-14T19:54:30.936Z,98.84
2024-03-14T19:57:00.064Z,98.77
2024-03-14T19:59:28.147Z,99.06
2024-03-14T20:01:55.730Z,98.63
2024-03-14T20:04:23.036Z,98.63
2024-03-14T20:06:50.414Z,98.97
2024-03-14T20:09:18.027Z,98.86
2024-03-14T20:11:45.568Z,98.84
2024-03-14T20:14:13.206Z,97.93
2024-03-14T20:16:40.560Z,98.03
2024-03-14T20:19:08.161Z,97.79
2024-03-14T20:21:36.716Z,97.34
2024-03-14T20:24:05.986Z,97.03
2024-03-14T20:26:33.247Z,96.96
2024-03-14T20:29:01.850Z,96.74
2024-03-14T20:31:29.312Z,96.86
2024-03-14T20:33:58.374Z,96.34
2024-03-14T20:36:25.959Z,96.05
2024-03-14T20:39:06.001Z,96.77
2024-03-14T20:41:34.280Z,97.17
2024-03-14T20:44:02.164Z,97.43
2024-03-14T20:46:30.055Z,97.71
2024-03-14T20:48:57.494Z,98.33
2024-03-14T20:51:26.996Z,99.61
2024-03-14T20:53:54.520Z,99.53
2024-03-14T20:56:34.357Z,99.94
2024-03-14T20:59:01.791Z,100.00
2024-03-14T21:01:29.095Z,100.00
2024-03-14T21:03:56.628Z,99.81
2024-03-14T21:06:26.912Z,99.70
2024-03-14T21:09:01.617Z,99.38
2024-03-14T21:11:29.546Z,98.73
2024-03-14T21:13:58.383Z,98.36
2024-03-14T21:16:26.600Z,97.93
2024-03-14T21:18:55.177Z,97.14
2024-03-14T21:21:23.650Z,96.19
2024-03-14T21:23:51.321Z,96.97
2024-03-14T21:26:18.851Z,96.66
2024-03-14T21:28:46.101Z,95.14
2024-03-14T21:31:15.057Z,95.92
2024-03-14T21:33:42.767Z,96.43
2024-03-14T21:36:10.901Z,96.83
2024-03-14T21:38:38.487Z,96.62
2024-03-14T21:41:06.169Z,96.88
2024-03-14T21:43:33.766Z,96.42
2024-03-14T21:46:01.130Z,96.25
2024-03-14T21:48:28.459Z,96.07
2024-03-14T21:50:58.499Z,95.90
2024-03-14T21:53:26.182Z,95.69
2024-03-14T21:55:53.473Z,96.09
2024-03-14T21:58:21.498Z,95.80
2024-03-14T22:00:49.057Z,95.81
2024-03-14T22:03:17.283Z,96.08
2024-03-14T22:05:44.856Z,95.96
2024-03-14T22:08:15.090Z,96.25
2024-03-14T22:10:42.410Z,96.78
2024-03-14T22:13:11.492Z,96.83
2024-03-14T22:15:40.074Z,97.10
2024-03-14T22:18:08.332Z,97.32
2024-03-14T22:20:35.700Z,96.76
2024-03-14T22:23:04.353Z,96.80
2024-03-14T22:25:31.879Z,97.48
2024-03-14T22:27:59.428Z,97.55
2024-03-14T22:30:27.006Z,97.50
2024-03-14T22:32:54.917Z,97.42
2024-03-14T22:35:22.498Z,98.04
2024-03-14T22:37:51.461Z,98.61
2024-03-14T22:40:18.995Z,98.70
2024-03-14T22:42:46.528Z,98.64
2024-03-14T22:45:14.363Z,98.93
2024-03-14T22:47:41.844Z,98.86
2024-03-14T22:50:10.114Z,98.70
2024-03-14T22:52:37.933Z,98.84
2024-03-14T22:55:05.810Z,98.93
2024-03-14T22:57:34.974Z,99.07
2024-03-14T23:00:02.898Z,98.86
2024-03-14T23:02:30.579Z,99.23
2024-03-14T23:04:59.598Z,99.35
2024-03-14T23:07:28.707Z,99.38
2024-03-14T23:09:58.098Z,99.59
2024-03-14T23:12:26.102Z,99.94
2024-03-14T23:14:53.373Z,99.80
2024-03-14T23:17:20.930Z,100.00
2024-03-14T23:19:48.287Z,100.00
2024-03-14T23:22:16.054Z,100.00
2024-03-14T23:24:43.313Z,100.00
2024-03-14T23:27:10.552Z,100.00
2024-03-14T23:29:38.011Z,100.00
2024-03-14T23:32:05.783Z,100.00
2024-03-14T23:34:33.867Z,100.00
2024-03-14T23:37:01.294Z,100.00
2024-03-14T23:39:28.870Z,100.00
2024-03-14T23:41:56.324Z,100.00
2024-03-14T23:44:23.464Z,100.00
2024-03-14T23:46:50.660Z,100.00
2024-03-14T23:49:20.356Z,100.00
2024-03-14T23:51:48.051Z,100.00
2024-03-14T23:54:16.077Z,100.00
2024-03-14T23:56:43.434Z,100.00
2024-03-14T23:59:13.861Z,100.00
